Lucan, Minnesota
Current Conditions -  °F | °C
As of 11:52 AM on Thursday 23 Oct 2014 (Local Time) from KTKC Reporting Station
Clear Clear  
Wind Chill: 65°   Ceiling: Unl
Heat Index: 65°   Visibility: 10mi
Dew Point: 49°   Wind: 8mph
Humidity: 56%   Direction: 240°WSW
Pressure: 30.01"   Gusts: NA
Location:  44.41°N, 95.41°W
Report Text: KTKC 231652Z AUTO 24007KT 10SM CLR 18/09 A3001 RMK AO2 T01820093
Loading
Personal Weather Stations






























Interactive Weather Map
Tropical Storm Tracking
New forecast layout! Learn more

10-Day Weather Forecast

Advertisements
Track Severe Weather on mobile